sensor_id;sensor_type;location;lat;lon;timestamp;temperature;humidity
7117;DHT22;3600;48.568;7.870;2024-01-30T00:03:55;2.10;99.90
7117;DHT22;3600;48.568;7.870;2024-01-30T00:09:38;2.00;99.90
7117;DHT22;3600;48.568;7.870;2024-01-30T00:16:07;2.00;99.90
7117;DHT22;3600;48.568;7.870;2024-01-30T00:19:38;2.00;99.90
7117;DHT22;3600;48.568;7.870;2024-01-30T00:38:09;2.10;99.90
7117;DHT22;3600;48.568;7.870;2024-01-30T00:41:45;2.10;99.90
7117;DHT22;3600;48.568;7.870;2024-01-30T00:48:46;2.20;99.90
7117;DHT22;3600;48.568;7.870;2024-01-30T00:51:57;2.20;99.90
7117;DHT22;3600;48.568;7.870;2024-01-30T00:58:32;2.10;99.90
7117;DHT22;3600;48.568;7.870;2024-01-30T01:01:47;2.00;99.90
7117;DHT22;3600;48.568;7.870;2024-01-30T01:04:53;2.00;99.90
7117;DHT22;3600;48.568;7.870;2024-01-30T01:11:15;1.80;99.90
7117;DHT22;3600;48.568;7.870;2024-01-30T01:14:10;2.00;99.90
7117;DHT22;3600;48.568;7.870;2024-01-30T01:17:23;1.90;99.90
7117;DHT22;3600;48.568;7.870;2024-01-30T01:26:41;2.20;99.90
7117;DHT22;3600;48.568;7.870;2024-01-30T01:29:59;1.90;99.90
7117;DHT22;3600;48.568;7.870;2024-01-30T01:36:47;1.80;99.90
7117;DHT22;3600;48.568;7.870;2024-01-30T01:39:37;1.90;99.90
7117;DHT22;3600;48.568;7.870;2024-01-30T01:42:55;1.90;99.90
7117;DHT22;3600;48.568;7.870;2024-01-30T01:46:08;2.00;99.90
7117;DHT22;3600;48.568;7.870;2024-01-30T01:59:54;1.60;99.90
7117;DHT22;3600;48.568;7.870;2024-01-30T02:06:19;1.50;99.90
7117;DHT22;3600;48.568;7.870;2024-01-30T02:09:46;1.40;99.90
7117;DHT22;3600;48.568;7.870;2024-01-30T02:13:18;1.50;99.90
7117;DHT22;3600;48.568;7.870;2024-01-30T02:16:53;1.60;99.90
7117;DHT22;3600;48.568;7.870;2024-01-30T02:29:47;1.60;99.90
7117;DHT22;3600;48.568;7.870;2024-01-30T02:32:51;1.60;99.90
7117;DHT22;3600;48.568;7.870;2024-01-30T02:50:17;1.80;99.90
7117;DHT22;3600;48.568;7.870;2024-01-30T02:53:33;1.80;99.90
7117;DHT22;3600;48.568;7.870;2024-01-30T02:56:42;1.70;99.90
7117;DHT22;3600;48.568;7.870;2024-01-30T03:07:55;1.80;99.90
7117;DHT22;3600;48.568;7.870;2024-01-30T03:10:54;1.60;99.90
7117;DHT22;3600;48.568;7.870;2024-01-30T03:22:34;1.60;99.90
7117;DHT22;3600;48.568;7.870;2024-01-30T03:25:57;1.40;99.90
7117;DHT22;3600;48.568;7.870;2024-01-30T03:36:33;1.40;99.90
7117;DHT22;3600;48.568;7.870;2024-01-30T03:39:01;1.70;99.90
7117;DHT22;3600;48.568;7.870;2024-01-30T03:41:31;1.80;99.90
7117;DHT22;3600;48.568;7.870;2024-01-30T03:43:58;1.70;99.90
7117;DHT22;3600;48.568;7.870;2024-01-30T03:46:25;1.60;99.90
7117;DHT22;3600;48.568;7.870;2024-01-30T03:48:52;1.60;99.90
7117;DHT22;3600;48.568;7.870;2024-01-30T03:51:21;1.50;99.90
7117;DHT22;3600;48.568;7.870;2024-01-30T03:53:48;1.40;99.90
7117;DHT22;3600;48.568;7.870;2024-01-30T03:56:15;1.40;99.90
7117;DHT22;3600;48.568;7.870;2024-01-30T03:58:42;1.50;99.90
7117;DHT22;3600;48.568;7.870;2024-01-30T04:01:15;1.60;99.90
7117;DHT22;3600;48.568;7.870;2024-01-30T04:03:43;1.60;99.90
7117;DHT22;3600;48.568;7.870;2024-01-30T04:06:11;1.50;99.90
7117;DHT22;3600;48.568;7.870;2024-01-30T04:08:38;1.60;99.90
7117;DHT22;3600;48.568;7.870;2024-01-30T04:11:05;1.70;99.90
7117;DHT22;3600;48.568;7.870;2024-01-30T04:13:34;1.70;99.90
7117;DHT22;3600;48.568;7.870;2024-01-30T04:16:02;1.60;99.90
7117;DHT22;3600;48.568;7.870;2024-01-30T04:18:30;1.50;99.90
7117;DHT22;3600;48.568;7.870;2024-01-30T04:20:57;1.50;99.90
7117;DHT22;3600;48.568;7.870;2024-01-30T04:23:23;1.60;99.90
7117;DHT22;3600;48.568;7.870;2024-01-30T04:25:50;1.60;99.90
7117;DHT22;3600;48.568;7.870;2024-01-30T04:28:17;1.60;99.90
7117;DHT22;3600;48.568;7.870;2024-01-30T04:30:44;1.60;99.90
7117;DHT22;3600;48.568;7.870;2024-01-30T04:33:11;1.60;99.90
7117;DHT22;3600;48.568;7.870;2024-01-30T04:35:38;1.70;99.90
7117;DHT22;3600;48.568;7.870;2024-01-30T04:38:05;1.60;99.90
7117;DHT22;3600;48.568;7.870;2024-01-30T04:40:32;1.60;99.90
7117;DHT22;3600;48.568;7.870;2024-01-30T04:42:59;1.80;99.90
7117;DHT22;3600;48.568;7.870;2024-01-30T04:45:26;1.50;99.90
7117;DHT22;3600;48.568;7.870;2024-01-30T04:47:54;1.30;99.90
7117;DHT22;3600;48.568;7.870;2024-01-30T04:50:20;1.30;99.90
7117;DHT22;3600;48.568;7.870;2024-01-30T04:52:47;1.40;99.90
7117;DHT22;3600;48.568;7.870;2024-01-30T04:55:18;1.50;99.90
7117;DHT22;3600;48.568;7.870;2024-01-30T04:57:48;1.50;99.90
7117;DHT22;3600;48.568;7.870;2024-01-30T05:00:16;1.40;99.90
7117;DHT22;3600;48.568;7.870;2024-01-30T05:02:43;1.40;99.90
7117;DHT22;3600;48.568;7.870;2024-01-30T05:05:10;1.40;99.90
7117;DHT22;3600;48.568;7.870;2024-01-30T05:07:38;1.50;99.90
7117;DHT22;3600;48.568;7.870;2024-01-30T05:10:06;1.50;99.90
7117;DHT22;3600;48.568;7.870;2024-01-30T05:12:33;1.50;99.90
7117;DHT22;3600;48.568;7.870;2024-01-30T05:15:00;1.60;99.90
7117;DHT22;3600;48.568;7.870;2024-01-30T05:17:27;1.60;99.90
7117;DHT22;3600;48.568;7.870;2024-01-30T05:19:56;1.60;99.90
7117;DHT22;3600;48.568;7.870;2024-01-30T05:22:23;1.60;99.90
7117;DHT22;3600;48.568;7.870;2024-01-30T05:24:50;1.60;99.90
7117;DHT22;3600;48.568;7.870;2024-01-30T05:27:17;1.60;99.90
7117;DHT22;3600;48.568;7.870;2024-01-30T05:29:44;1.50;99.90
7117;DHT22;3600;48.568;7.870;2024-01-30T05:32:12;1.40;99.90
7117;DHT22;3600;48.568;7.870;2024-01-30T05:34:39;1.40;99.90
7117;DHT22;3600;48.568;7.870;2024-01-30T05:37:06;1.50;99.90
7117;DHT22;3600;48.568;7.870;2024-01-30T05:39:33;1.40;99.90
7117;DHT22;3600;48.568;7.870;2024-01-30T05:42:00;1.30;99.90
7117;DHT22;3600;48.568;7.870;2024-01-30T05:44:27;1.40;99.90
7117;DHT22;3600;48.568;7.870;2024-01-30T05:46:54;1.40;99.90
7117;DHT22;3600;48.568;7.870;2024-01-30T05:49:21;1.30;99.90
7117;DHT22;3600;48.568;7.870;2024-01-30T05:51:48;1.50;99.90
7117;DHT22;3600;48.568;7.870;2024-01-30T05:54:15;1.40;99.90
7117;DHT22;3600;48.568;7.870;2024-01-30T05:56:43;1.30;99.90
7117;DHT22;3600;48.568;7.870;2024-01-30T05:59:10;1.20;99.90
7117;DHT22;3600;48.568;7.870;2024-01-30T06:01:37;1.20;99.90
7117;DHT22;3600;48.568;7.870;2024-01-30T06:04:07;1.30;99.90
7117;DHT22;3600;48.568;7.870;2024-01-30T06:06:34;1.60;99.90
7117;DHT22;3600;48.568;7.870;2024-01-30T06:09:01;1.80;99.90
7117;DHT22;3600;48.568;7.870;2024-01-30T06:11:28;1.90;99.90
7117;DHT22;3600;48.568;7.870;2024-01-30T06:13:55;2.00;99.90
7117;DHT22;3600;48.568;7.870;2024-01-30T06:16:22;2.20;99.90
7117;DHT22;3600;48.568;7.870;2024-01-30T06:18:50;2.30;99.90
7117;DHT22;3600;48.568;7.870;2024-01-30T06:21:18;2.40;99.90
7117;DHT22;3600;48.568;7.870;2024-01-30T06:23:45;2.50;99.90
7117;DHT22;3600;48.568;7.870;2024-01-30T06:26:11;2.50;99.90
7117;DHT22;3600;48.568;7.870;2024-01-30T06:28:38;2.50;99.90
7117;DHT22;3600;48.568;7.870;2024-01-30T06:31:05;2.60;99.90
7117;DHT22;3600;48.568;7.870;2024-01-30T06:33:32;2.60;99.90
7117;DHT22;3600;48.568;7.870;2024-01-30T06:35:59;2.50;99.90
7117;DHT22;3600;48.568;7.870;2024-01-30T06:38:26;2.60;99.90
7117;DHT22;3600;48.568;7.870;2024-01-30T06:40:54;2.60;99.90
7117;DHT22;3600;48.568;7.870;2024-01-30T06:43:22;2.70;99.90
7117;DHT22;3600;48.568;7.870;2024-01-30T06:45:49;2.60;99.90
7117;DHT22;3600;48.568;7.870;2024-01-30T06:48:17;2.70;99.90
7117;DHT22;3600;48.568;7.870;2024-01-30T06:50:44;2.60;99.90
7117;DHT22;3600;48.568;7.870;2024-01-30T06:53:12;2.60;99.90
7117;DHT22;3600;48.568;7.870;2024-01-30T06:55:38;2.70;99.90
7117;DHT22;3600;48.568;7.870;2024-01-30T06:58:06;2.70;99.90
7117;DHT22;3600;48.568;7.870;2024-01-30T07:00:33;2.70;99.90
7117;DHT22;3600;48.568;7.870;2024-01-30T07:03:00;2.80;99.90
7117;DHT22;3600;48.568;7.870;2024-01-30T07:05:27;2.80;99.90
7117;DHT22;3600;48.568;7.870;2024-01-30T07:07:54;2.80;99.90
7117;DHT22;3600;48.568;7.870;2024-01-30T07:10:21;2.70;99.90
7117;DHT22;3600;48.568;7.870;2024-01-30T07:12:48;2.60;99.90
7117;DHT22;3600;48.568;7.870;2024-01-30T07:15:15;2.40;99.90
7117;DHT22;3600;48.568;7.870;2024-01-30T07:17:46;2.30;99.90
7117;DHT22;3600;48.568;7.870;2024-01-30T07:20:13;2.30;99.90
7117;DHT22;3600;48.568;7.870;2024-01-30T07:22:44;2.30;99.90
7117;DHT22;3600;48.568;7.870;2024-01-30T07:25:11;2.30;99.90
7117;DHT22;3600;48.568;7.870;2024-01-30T07:27:38;2.30;99.90
7117;DHT22;3600;48.568;7.870;2024-01-30T07:30:05;2.30;99.90
7117;DHT22;3600;48.568;7.870;2024-01-30T07:32:32;2.20;99.90
7117;DHT22;3600;48.568;7.870;2024-01-30T07:34:59;2.20;99.90
7117;DHT22;3600;48.568;7.870;2024-01-30T07:37:34;2.20;99.90
7117;DHT22;3600;48.568;7.870;2024-01-30T07:40:02;2.20;99.90
7117;DHT22;3600;48.568;7.870;2024-01-30T07:42:30;2.30;99.90
7117;DHT22;3600;48.568;7.870;2024-01-30T07:45:00;2.20;99.90
7117;DHT22;3600;48.568;7.870;2024-01-30T07:47:27;2.30;99.90
7117;DHT22;3600;48.568;7.870;2024-01-30T07:49:54;2.40;99.90
7117;DHT22;3600;48.568;7.870;2024-01-30T07:52:21;2.50;99.90
7117;DHT22;3600;48.568;7.870;2024-01-30T07:54:49;2.60;99.90
7117;DHT22;3600;48.568;7.870;2024-01-30T07:57:17;2.70;99.90
7117;DHT22;3600;48.568;7.870;2024-01-30T07:59:45;2.80;99.90
7117;DHT22;3600;48.568;7.870;2024-01-30T08:02:13;2.80;99.90
7117;DHT22;3600;48.568;7.870;2024-01-30T08:04:40;2.80;99.90
7117;DHT22;3600;48.568;7.870;2024-01-30T08:07:07;2.80;99.90
7117;DHT22;3600;48.568;7.870;2024-01-30T08:09:35;2.90;99.90
7117;DHT22;3600;48.568;7.870;2024-01-30T08:12:02;3.00;99.90
7117;DHT22;3600;48.568;7.870;2024-01-30T08:14:28;3.00;99.90
7117;DHT22;3600;48.568;7.870;2024-01-30T08:16:55;3.10;99.90
7117;DHT22;3600;48.568;7.870;2024-01-30T08:19:22;3.10;99.90
7117;DHT22;3600;48.568;7.870;2024-01-30T08:21:50;3.20;99.90
7117;DHT22;3600;48.568;7.870;2024-01-30T08:24:16;3.20;99.90
7117;DHT22;3600;48.568;7.870;2024-01-30T08:26:43;3.20;99.90
7117;DHT22;3600;48.568;7.870;2024-01-30T08:29:10;3.30;99.90
7117;DHT22;3600;48.568;7.870;2024-01-30T08:31:37;3.30;99.90
7117;DHT22;3600;48.568;7.870;2024-01-30T08:34:04;3.30;99.90
7117;DHT22;3600;48.568;7.870;2024-01-30T08:36:31;3.30;99.90
7117;DHT22;3600;48.568;7.870;2024-01-30T08:38:58;3.20;99.90
7117;DHT22;3600;48.568;7.870;2024-01-30T08:41:30;3.40;99.90
7117;DHT22;3600;48.568;7.870;2024-01-30T08:43:57;3.40;99.90
7117;DHT22;3600;48.568;7.870;2024-01-30T08:46:24;3.30;99.90
7117;DHT22;3600;48.568;7.870;2024-01-30T08:48:51;3.30;99.90
7117;DHT22;3600;48.568;7.870;2024-01-30T08:51:18;3.30;99.90
7117;DHT22;3600;48.568;7.870;2024-01-30T08:53:45;3.30;99.90
7117;DHT22;3600;48.568;7.870;2024-01-30T08:56:12;3.40;99.90
7117;DHT22;3600;48.568;7.870;2024-01-30T08:58:39;3.40;99.90
7117;DHT22;3600;48.568;7.870;2024-01-30T09:01:09;3.50;99.90
7117;DHT22;3600;48.568;7.870;2024-01-30T09:03:36;3.60;99.90
7117;DHT22;3600;48.568;7.870;2024-01-30T09:06:09;3.70;99.90
7117;DHT22;3600;48.568;7.870;2024-01-30T09:08:38;3.80;99.90
7117;DHT22;3600;48.568;7.870;2024-01-30T09:11:09;3.90;99.90
7117;DHT22;3600;48.568;7.870;2024-01-30T09:13:37;4.00;99.90
7117;DHT22;3600;48.568;7.870;2024-01-30T09:16:04;4.00;99.90
7117;DHT22;3600;48.568;7.870;2024-01-30T09:18:31;4.00;99.90
7117;DHT22;3600;48.568;7.870;2024-01-30T09:20:58;4.10;99.90
7117;DHT22;3600;48.568;7.870;2024-01-30T09:23:27;4.10;99.90
7117;DHT22;3600;48.568;7.870;2024-01-30T09:25:54;4.10;99.90
7117;DHT22;3600;48.568;7.870;2024-01-30T09:28:21;4.10;99.90
7117;DHT22;3600;48.568;7.870;2024-01-30T09:30:52;4.20;99.90
7117;DHT22;3600;48.568;7.870;2024-01-30T09:33:19;4.20;99.90
7117;DHT22;3600;48.568;7.870;2024-01-30T09:35:46;4.20;99.90
7117;DHT22;3600;48.568;7.870;2024-01-30T09:38:13;4.30;99.90
7117;DHT22;3600;48.568;7.870;2024-01-30T09:40:40;4.40;99.90
7117;DHT22;3600;48.568;7.870;2024-01-30T09:43:11;4.50;99.90
7117;DHT22;3600;48.568;7.870;2024-01-30T09:45:42;4.60;99.90
7117;DHT22;3600;48.568;7.870;2024-01-30T09:48:11;4.60;99.90
7117;DHT22;3600;48.568;7.870;2024-01-30T09:50:38;4.70;99.90
7117;DHT22;3600;48.568;7.870;2024-01-30T09:53:07;4.80;99.90
7117;DHT22;3600;48.568;7.870;2024-01-30T09:55:36;4.80;99.90
7117;DHT22;3600;48.568;7.870;2024-01-30T09:58:03;4.90;99.90
7117;DHT22;3600;48.568;7.870;2024-01-30T10:00:30;4.90;99.90
7117;DHT22;3600;48.568;7.870;2024-01-30T10:02:58;5.00;99.90
7117;DHT22;3600;48.568;7.870;2024-01-30T10:05:27;5.10;99.90
7117;DHT22;3600;48.568;7.870;2024-01-30T10:07:56;5.10;99.90
7117;DHT22;3600;48.568;7.870;2024-01-30T10:10:24;5.10;99.90
7117;DHT22;3600;48.568;7.870;2024-01-30T10:12:52;5.20;99.90
7117;DHT22;3600;48.568;7.870;2024-01-30T10:15:19;5.30;99.90
7117;DHT22;3600;48.568;7.870;2024-01-30T10:17:49;5.30;99.90
7117;DHT22;3600;48.568;7.870;2024-01-30T10:20:16;5.40;99.90
7117;DHT22;3600;48.568;7.870;2024-01-30T10:22:44;5.40;99.90
7117;DHT22;3600;48.568;7.870;2024-01-30T10:25:12;5.40;99.90
7117;DHT22;3600;48.568;7.870;2024-01-30T10:27:39;5.50;99.90
7117;DHT22;3600;48.568;7.870;2024-01-30T10:30:07;5.50;99.90
7117;DHT22;3600;48.568;7.870;2024-01-30T10:32:34;5.50;99.90
7117;DHT22;3600;48.568;7.870;2024-01-30T10:35:02;5.60;99.90
7117;DHT22;3600;48.568;7.870;2024-01-30T10:37:30;5.80;99.90
7117;DHT22;3600;48.568;7.870;2024-01-30T10:40:02;5.80;99.90
7117;DHT22;3600;48.568;7.870;2024-01-30T10:42:33;5.90;99.90
7117;DHT22;3600;48.568;7.870;2024-01-30T10:45:07;5.90;99.90
7117;DHT22;3600;48.568;7.870;2024-01-30T10:47:53;5.90;99.90
7117;DHT22;3600;48.568;7.870;2024-01-30T10:50:26;6.00;99.90
7117;DHT22;3600;48.568;7.870;2024-01-30T10:52:54;6.20;99.90
7117;DHT22;3600;48.568;7.870;2024-01-30T10:55:22;6.30;99.90
7117;DHT22;3600;48.568;7.870;2024-01-30T10:57:50;6.40;99.90
7117;DHT22;3600;48.568;7.870;2024-01-30T11:00:18;6.40;99.90
7117;DHT22;3600;48.568;7.870;2024-01-30T11:02:49;6.50;99.90
7117;DHT22;3600;48.568;7.870;2024-01-30T11:05:23;6.60;99.90
7117;DHT22;3600;48.568;7.870;2024-01-30T11:07:55;6.70;99.90
7117;DHT22;3600;48.568;7.870;2024-01-30T11:10:25;6.80;99.90
7117;DHT22;3600;48.568;7.870;2024-01-30T11:12:52;7.00;99.90
7117;DHT22;3600;48.568;7.870;2024-01-30T11:15:19;7.00;99.90
7117;DHT22;3600;48.568;7.870;2024-01-30T11:20:25;7.00;99.90
7117;DHT22;3600;48.568;7.870;2024-01-30T11:22:53;7.20;99.90
7117;DHT22;3600;48.568;7.870;2024-01-30T11:25:22;7.20;99.90
7117;DHT22;3600;48.568;7.870;2024-01-30T11:27:51;7.30;99.90
7117;DHT22;3600;48.568;7.870;2024-01-30T11:33:05;7.40;99.90
7117;DHT22;3600;48.568;7.870;2024-01-30T11:38:11;7.50;99.90
7117;DHT22;3600;48.568;7.870;2024-01-30T11:40:40;7.60;99.90
7117;DHT22;3600;48.568;7.870;2024-01-30T11:43:08;7.80;99.90
7117;DHT22;3600;48.568;7.870;2024-01-30T11:45:36;7.80;99.90
7117;DHT22;3600;48.568;7.870;2024-01-30T11:48:04;7.90;99.90
7117;DHT22;3600;48.568;7.870;2024-01-30T11:50:35;7.90;99.90
7117;DHT22;3600;48.568;7.870;2024-01-30T11:53:05;7.90;99.90
7117;DHT22;3600;48.568;7.870;2024-01-30T11:55:33;8.00;99.90
7117;DHT22;3600;48.568;7.870;2024-01-30T11:58:01;8.20;99.90
7117;DHT22;3600;48.568;7.870;2024-01-30T12:00:30;8.20;99.90
7117;DHT22;3600;48.568;7.870;2024-01-30T12:03:01;8.20;99.90
7117;DHT22;3600;48.568;7.870;2024-01-30T12:05:31;8.40;99.90
7117;DHT22;3600;48.568;7.870;2024-01-30T12:07:58;8.50;99.90
7117;DHT22;3600;48.568;7.870;2024-01-30T12:10:29;8.60;99.90
7117;DHT22;3600;48.568;7.870;2024-01-30T12:12:57;8.70;99.90
7117;DHT22;3600;48.568;7.870;2024-01-30T12:15:25;8.80;99.90
7117;DHT22;3600;48.568;7.870;2024-01-30T12:17:52;9.00;99.90
7117;DHT22;3600;48.568;7.870;2024-01-30T12:20:19;9.10;99.90
7117;DHT22;3600;48.568;7.870;2024-01-30T12:22:49;9.30;99.90
7117;DHT22;3600;48.568;7.870;2024-01-30T12:25:18;9.40;99.90
7117;DHT22;3600;48.568;7.870;2024-01-30T12:27:49;9.50;99.90
7117;DHT22;3600;48.568;7.870;2024-01-30T12:30:19;9.50;99.90
7117;DHT22;3600;48.568;7.870;2024-01-30T12:32:49;9.60;99.90
7117;DHT22;3600;48.568;7.870;2024-01-30T12:35:19;9.60;99.90
7117;DHT22;3600;48.568;7.870;2024-01-30T12:37:47;9.60;99.90
7117;DHT22;3600;48.568;7.870;2024-01-30T12:40:15;9.60;99.90
7117;DHT22;3600;48.568;7.870;2024-01-30T12:42:42;9.60;99.90
7117;DHT22;3600;48.568;7.870;2024-01-30T12:45:10;9.80;99.90
7117;DHT22;3600;48.568;7.870;2024-01-30T12:47:41;9.70;99.90
7117;DHT22;3600;48.568;7.870;2024-01-30T12:50:08;9.70;99.90
7117;DHT22;3600;48.568;7.870;2024-01-30T12:52:36;9.80;99.90
7117;DHT22;3600;48.568;7.870;2024-01-30T12:55:03;9.80;99.90
7117;DHT22;3600;48.568;7.870;2024-01-30T12:57:31;9.90;99.90
7117;DHT22;3600;48.568;7.870;2024-01-30T12:59:58;9.80;99.90
7117;DHT22;3600;48.568;7.870;2024-01-30T13:02:25;9.80;99.90
7117;DHT22;3600;48.568;7.870;2024-01-30T13:04:54;9.80;99.90
7117;DHT22;3600;48.568;7.870;2024-01-30T13:07:21;9.90;99.90
7117;DHT22;3600;48.568;7.870;2024-01-30T13:09:48;10.00;99.90
7117;DHT22;3600;48.568;7.870;2024-01-30T13:12:15;10.00;99.90
7117;DHT22;3600;48.568;7.870;2024-01-30T13:14:42;10.00;99.90
7117;DHT22;3600;48.568;7.870;2024-01-30T13:17:15;10.00;99.90
7117;DHT22;3600;48.568;7.870;2024-01-30T13:19:42;10.10;99.90
7117;DHT22;3600;48.568;7.870;2024-01-30T13:22:09;10.20;99.90
7117;DHT22;3600;48.568;7.870;2024-01-30T13:24:36;10.20;99.90
7117;DHT22;3600;48.568;7.870;2024-01-30T13:27:03;10.30;99.90
7117;DHT22;3600;48.568;7.870;2024-01-30T13:29:32;10.20;99.90
7117;DHT22;3600;48.568;7.870;2024-01-30T13:31:59;10.30;99.90
7117;DHT22;3600;48.568;7.870;2024-01-30T13:34:26;10.30;99.90
7117;DHT22;3600;48.568;7.870;2024-01-30T13:36:53;10.20;99.90
7117;DHT22;3600;48.568;7.870;2024-01-30T13:39:20;10.40;99.90
7117;DHT22;3600;48.568;7.870;2024-01-30T13:41:49;10.40;99.90
7117;DHT22;3600;48.568;7.870;2024-01-30T13:44:16;10.30;99.90
7117;DHT22;3600;48.568;7.870;2024-01-30T13:46:44;10.30;99.90
7117;DHT22;3600;48.568;7.870;2024-01-30T13:49:11;10.20;99.90
7117;DHT22;3600;48.568;7.870;2024-01-30T13:51:38;10.10;99.90
7117;DHT22;3600;48.568;7.870;2024-01-30T13:54:05;10.10;99.90
7117;DHT22;3600;48.568;7.870;2024-01-30T13:56:32;10.10;99.90
7117;DHT22;3600;48.568;7.870;2024-01-30T13:58:59;10.00;99.90
7117;DHT22;3600;48.568;7.870;2024-01-30T14:01:28;9.90;99.90
7117;DHT22;3600;48.568;7.870;2024-01-30T14:03:55;10.00;99.90
7117;DHT22;3600;48.568;7.870;2024-01-30T14:06:22;10.00;99.90
7117;DHT22;3600;48.568;7.870;2024-01-30T14:08:49;9.90;99.90
7117;DHT22;3600;48.568;7.870;2024-01-30T14:11:26;9.90;99.90
7117;DHT22;3600;48.568;7.870;2024-01-30T14:13:53;10.00;99.90
7117;DHT22;3600;48.568;7.870;2024-01-30T14:16:20;10.00;99.90
7117;DHT22;3600;48.568;7.870;2024-01-30T14:18:47;10.10;99.90
7117;DHT22;3600;48.568;7.870;2024-01-30T14:21:14;10.10;99.90
7117;DHT22;3600;48.568;7.870;2024-01-30T14:23:41;10.00;99.90
7117;DHT22;3600;48.568;7.870;2024-01-30T14:26:08;10.10;99.90
7117;DHT22;3600;48.568;7.870;2024-01-30T14:28:35;10.10;99.90
7117;DHT22;3600;48.568;7.870;2024-01-30T14:31:02;10.10;99.90
7117;DHT22;3600;48.568;7.870;2024-01-30T14:33:30;10.20;99.90
7117;DHT22;3600;48.568;7.870;2024-01-30T14:35:56;10.20;99.90
7117;DHT22;3600;48.568;7.870;2024-01-30T14:38:24;10.20;99.90
7117;DHT22;3600;48.568;7.870;2024-01-30T14:40:51;10.20;99.90
7117;DHT22;3600;48.568;7.870;2024-01-30T14:43:18;10.20;99.90
7117;DHT22;3600;48.568;7.870;2024-01-30T14:45:45;10.20;99.90
7117;DHT22;3600;48.568;7.870;2024-01-30T14:48:15;10.10;99.90
7117;DHT22;3600;48.568;7.870;2024-01-30T14:50:42;10.10;99.90
7117;DHT22;3600;48.568;7.870;2024-01-30T14:53:09;10.00;99.90
7117;DHT22;3600;48.568;7.870;2024-01-30T14:55:36;10.00;99.90
7117;DHT22;3600;48.568;7.870;2024-01-30T14:58:04;10.10;99.90
7117;DHT22;3600;48.568;7.870;2024-01-30T15:00:31;10.10;99.90
7117;DHT22;3600;48.568;7.870;2024-01-30T15:02:58;10.10;99.90
7117;DHT22;3600;48.568;7.870;2024-01-30T15:05:24;10.00;99.90
7117;DHT22;3600;48.568;7.870;2024-01-30T15:07:51;9.90;99.90
7117;DHT22;3600;48.568;7.870;2024-01-30T15:10:18;9.90;99.90
7117;DHT22;3600;48.568;7.870;2024-01-30T15:12:45;10.00;99.90
7117;DHT22;3600;48.568;7.870;2024-01-30T15:15:12;9.90;99.90
7117;DHT22;3600;48.568;7.870;2024-01-30T15:17:39;10.00;99.90
7117;DHT22;3600;48.568;7.870;2024-01-30T15:20:07;10.00;99.90
7117;DHT22;3600;48.568;7.870;2024-01-30T15:22:35;10.00;99.90
7117;DHT22;3600;48.568;7.870;2024-01-30T15:25:02;10.00;99.90
7117;DHT22;3600;48.568;7.870;2024-01-30T15:27:30;10.00;99.90
7117;DHT22;3600;48.568;7.870;2024-01-30T15:29:57;10.00;99.90
7117;DHT22;3600;48.568;7.870;2024-01-30T15:32:24;10.00;99.90
7117;DHT22;3600;48.568;7.870;2024-01-30T15:34:51;10.00;99.90
7117;DHT22;3600;48.568;7.870;2024-01-30T15:37:19;10.00;99.90
7117;DHT22;3600;48.568;7.870;2024-01-30T15:39:46;9.90;99.90
7117;DHT22;3600;48.568;7.870;2024-01-30T15:42:13;9.90;99.90
7117;DHT22;3600;48.568;7.870;2024-01-30T15:44:40;9.80;99.90
7117;DHT22;3600;48.568;7.870;2024-01-30T15:47:07;9.80;99.90
7117;DHT22;3600;48.568;7.870;2024-01-30T15:49:34;9.80;99.90
7117;DHT22;3600;48.568;7.870;2024-01-30T15:52:01;9.70;99.90
7117;DHT22;3600;48.568;7.870;2024-01-30T15:54:27;9.70;99.90
7117;DHT22;3600;48.568;7.870;2024-01-30T15:56:54;9.70;99.90
7117;DHT22;3600;48.568;7.870;2024-01-30T15:59:22;9.70;99.90
7117;DHT22;3600;48.568;7.870;2024-01-30T16:01:49;9.70;99.90
7117;DHT22;3600;48.568;7.870;2024-01-30T16:04:16;9.60;99.90
7117;DHT22;3600;48.568;7.870;2024-01-30T16:06:43;9.60;99.90
7117;DHT22;3600;48.568;7.870;2024-01-30T16:09:10;9.50;99.90
7117;DHT22;3600;48.568;7.870;2024-01-30T16:11:37;9.50;99.90
7117;DHT22;3600;48.568;7.870;2024-01-30T16:14:05;9.50;99.90
7117;DHT22;3600;48.568;7.870;2024-01-30T16:16:33;9.50;99.90
7117;DHT22;3600;48.568;7.870;2024-01-30T16:19:01;9.50;99.90
7117;DHT22;3600;48.568;7.870;2024-01-30T16:21:28;9.50;99.90
7117;DHT22;3600;48.568;7.870;2024-01-30T16:23:54;9.40;99.90
7117;DHT22;3600;48.568;7.870;2024-01-30T16:26:22;9.40;99.90
7117;DHT22;3600;48.568;7.870;2024-01-30T16:28:49;9.30;99.90
7117;DHT22;3600;48.568;7.870;2024-01-30T16:31:16;9.30;99.90
7117;DHT22;3600;48.568;7.870;2024-01-30T16:33:47;9.40;99.90
7117;DHT22;3600;48.568;7.870;2024-01-30T16:36:17;9.40;99.90
7117;DHT22;3600;48.568;7.870;2024-01-30T16:38:44;9.40;99.90
7117;DHT22;3600;48.568;7.870;2024-01-30T16:41:11;9.40;99.90
7117;DHT22;3600;48.568;7.870;2024-01-30T16:43:38;9.40;99.90
7117;DHT22;3600;48.568;7.870;2024-01-30T16:46:05;9.40;99.90
7117;DHT22;3600;48.568;7.870;2024-01-30T16:48:32;9.30;99.90
7117;DHT22;3600;48.568;7.870;2024-01-30T16:50:59;9.30;99.90
7117;DHT22;3600;48.568;7.870;2024-01-30T16:53:26;9.30;99.90
7117;DHT22;3600;48.568;7.870;2024-01-30T16:55:53;9.30;99.90
7117;DHT22;3600;48.568;7.870;2024-01-30T16:58:19;9.30;99.90
7117;DHT22;3600;48.568;7.870;2024-01-30T17:00:47;9.20;99.90
7117;DHT22;3600;48.568;7.870;2024-01-30T17:03:14;9.20;99.90
7117;DHT22;3600;48.568;7.870;2024-01-30T17:05:41;9.10;99.90
7117;DHT22;3600;48.568;7.870;2024-01-30T17:08:08;9.10;99.90
7117;DHT22;3600;48.568;7.870;2024-01-30T17:10:36;9.10;99.90
7117;DHT22;3600;48.568;7.870;2024-01-30T17:13:03;9.10;99.90
7117;DHT22;3600;48.568;7.870;2024-01-30T17:15:30;9.10;99.90
7117;DHT22;3600;48.568;7.870;2024-01-30T17:17:56;9.00;99.90
7117;DHT22;3600;48.568;7.870;2024-01-30T17:20:23;9.10;99.90
7117;DHT22;3600;48.568;7.870;2024-01-30T17:22:50;9.10;99.90
7117;DHT22;3600;48.568;7.870;2024-01-30T17:25:17;9.10;99.90
7117;DHT22;3600;48.568;7.870;2024-01-30T17:27:44;9.10;99.90
7117;DHT22;3600;48.568;7.870;2024-01-30T17:30:12;9.10;99.90
7117;DHT22;3600;48.568;7.870;2024-01-30T17:32:41;9.10;99.90
7117;DHT22;3600;48.568;7.870;2024-01-30T17:35:08;9.10;99.90
7117;DHT22;3600;48.568;7.870;2024-01-30T17:37:35;9.00;99.90
7117;DHT22;3600;48.568;7.870;2024-01-30T17:40:05;9.10;99.90
7117;DHT22;3600;48.568;7.870;2024-01-30T17:42:34;9.10;99.90
7117;DHT22;3600;48.568;7.870;2024-01-30T17:45:03;9.00;99.90
7117;DHT22;3600;48.568;7.870;2024-01-30T17:47:30;9.00;99.90
7117;DHT22;3600;48.568;7.870;2024-01-30T17:49:57;8.90;99.90
7117;DHT22;3600;48.568;7.870;2024-01-30T17:52:24;8.90;99.90
7117;DHT22;3600;48.568;7.870;2024-01-30T17:54:51;8.90;99.90
7117;DHT22;3600;48.568;7.870;2024-01-30T17:57:22;8.90;99.90
7117;DHT22;3600;48.568;7.870;2024-01-30T17:59:49;8.80;99.90
7117;DHT22;3600;48.568;7.870;2024-01-30T18:02:16;8.80;99.90
7117;DHT22;3600;48.568;7.870;2024-01-30T18:04:43;8.80;99.90
7117;DHT22;3600;48.568;7.870;2024-01-30T18:07:37;8.80;99.90
7117;DHT22;3600;48.568;7.870;2024-01-30T18:10:08;8.80;99.90
7117;DHT22;3600;48.568;7.870;2024-01-30T18:12:35;8.70;99.90
7117;DHT22;3600;48.568;7.870;2024-01-30T18:15:04;8.70;99.90
7117;DHT22;3600;48.568;7.870;2024-01-30T18:17:32;8.70;99.90
7117;DHT22;3600;48.568;7.870;2024-01-30T18:19:59;8.60;99.90
7117;DHT22;3600;48.568;7.870;2024-01-30T18:22:29;8.60;99.90
7117;DHT22;3600;48.568;7.870;2024-01-30T18:24:58;8.60;99.90
7117;DHT22;3600;48.568;7.870;2024-01-30T18:27:25;8.60;99.90
7117;DHT22;3600;48.568;7.870;2024-01-30T18:29:52;8.50;99.90
7117;DHT22;3600;48.568;7.870;2024-01-30T18:32:20;8.50;99.90
7117;DHT22;3600;48.568;7.870;2024-01-30T18:34:49;8.50;99.90
7117;DHT22;3600;48.568;7.870;2024-01-30T18:37:19;8.40;99.90